Time;durP1;ratioP1;P1;durP2;ratioP2;P2;SDS_P1;SDS_P2;PMS_P1;PMS_P2;Temp;Humidity;BMP_temperature;BMP_pressure;BME280_temperature;BME280_humidity;BME280_pressure;Samples;Min_cycle;Max_cycle;Signal;HPM_P1;HPM_P2
2021/09/04 00:00:50;;;;;;;0.40;0.40;;;13.80;99.90;;;;;;5088972;28;20167;-74
2021/09/04 00:03:16;;;;;;;1.55;1.45;;;13.80;99.90;;;;;;5088931;28;20212;-73
2021/09/04 00:05:42;;;;;;;0.38;0.38;;;13.90;99.90;;;;;;5070747;28;20263;-74
2021/09/04 00:08:07;;;;;;;2.33;2.22;;;13.90;99.90;;;;;;5088298;28;20175;-74
2021/09/04 00:10:33;;;;;;;0.75;0.40;;;13.90;99.90;;;;;;5088844;28;20621;-74
2021/09/04 00:12:59;;;;;;;1.27;0.98;;;13.90;99.90;;;;;;5088889;28;20168;-73
2021/09/04 00:15:26;;;;;;;0.65;0.50;;;13.90;99.90;;;;;;5088560;28;20192;-73
2021/09/04 00:17:55;;;;;;;0.30;0.30;;;13.80;99.90;;;;;;5088640;28;20168;-74
2021/09/04 00:20:21;;;;;;;1.35;0.85;;;13.90;99.90;;;;;;5088563;28;20160;-74
2021/09/04 00:22:47;;;;;;;0.10;0.10;;;14.00;99.90;;;;;;5088552;28;20206;-73
2021/09/04 00:25:15;;;;;;;0.55;0.55;;;14.00;99.90;;;;;;5070467;28;20208;-73
2021/09/04 00:27:41;;;;;;;0.73;0.73;;;14.00;99.90;;;;;;5088438;28;20167;-73
2021/09/04 00:30:08;;;;;;;1.52;1.33;;;13.90;99.90;;;;;;5070281;28;20172;-74
2021/09/04 00:32:34;;;;;;;0.55;0.55;;;13.90;99.90;;;;;;5088378;28;20164;-73
2021/09/04 00:35:00;;;;;;;0.85;0.85;;;13.80;99.90;;;;;;5088394;28;20221;-73
2021/09/04 00:37:26;;;;;;;1.25;1.15;;;13.80;99.90;;;;;;5070253;28;20187;-73
2021/09/04 00:39:52;;;;;;;0.65;0.65;;;13.90;99.90;;;;;;5088337;28;20160;-74
2021/09/04 00:42:21;;;;;;;1.10;0.57;;;13.80;99.90;;;;;;5070172;28;20179;-74
2021/09/04 00:44:47;;;;;;;0.40;0.40;;;13.80;99.90;;;;;;5088199;28;20691;-74
2021/09/04 00:47:14;;;;;;;0.85;0.80;;;13.80;99.90;;;;;;5088233;28;20178;-73
2021/09/04 00:49:40;;;;;;;1.35;0.73;;;13.80;99.90;;;;;;5070140;28;20176;-73
2021/09/04 00:52:07;;;;;;;3.35;1.40;;;13.70;99.90;;;;;;5088121;28;20167;-73
2021/09/04 00:54:35;;;;;;;0.40;0.40;;;13.70;99.90;;;;;;5089201;28;20288;-73
2021/09/04 00:57:02;;;;;;;1.05;0.90;;;13.70;99.90;;;;;;5108290;28;20165;-73
2021/09/04 00:59:29;;;;;;;2.03;1.23;;;13.60;99.90;;;;;;5090056;28;20168;-73
2021/09/04 01:01:55;;;;;;;0.30;0.30;;;13.60;99.90;;;;;;5090198;28;20170;-73
2021/09/04 01:04:21;;;;;;;0.30;0.30;;;13.50;99.90;;;;;;5108190;28;20198;-73
2021/09/04 01:06:48;;;;;;;0.60;0.60;;;13.50;99.90;;;;;;5108303;28;20160;-73
2021/09/04 01:09:15;;;;;;;0.10;0.10;;;13.50;99.90;;;;;;5090207;28;20201;-73
2021/09/04 01:11:41;;;;;;;1.08;0.75;;;13.40;99.90;;;;;;5108360;28;20158;-72
2021/09/04 01:14:07;;;;;;;0.35;0.35;;;13.40;99.90;;;;;;5108275;28;20308;-74
2021/09/04 01:16:41;;;;;;;1.08;0.90;;;13.40;99.90;;;;;;5089917;28;20159;-72
2021/09/04 01:19:08;;;;;;;0.10;0.10;;;13.50;99.90;;;;;;5108315;28;20155;-72
2021/09/04 01:21:35;;;;;;;3.38;0.88;;;13.40;99.90;;;;;;5093732;28;20194;-72
2021/09/04 01:24:03;;;;;;;2.55;1.00;;;13.30;99.90;;;;;;5093590;28;20199;-72
2021/09/04 01:26:30;;;;;;;0.28;0.28;;;13.20;99.90;;;;;;5093731;28;20218;-72
2021/09/04 01:28:57;;;;;;;0.50;0.50;;;13.20;99.90;;;;;;5111966;28;20154;-72
2021/09/04 01:31:24;;;;;;;0.88;0.88;;;13.20;99.90;;;;;;5093580;28;20202;-72
2021/09/04 01:33:50;;;;;;;0.50;0.50;;;13.10;99.90;;;;;;5111821;28;20215;-73
2021/09/04 01:36:26;;;;;;;2.20;1.00;;;13.10;99.90;;;;;;5093547;28;20168;-72
2021/09/04 01:38:52;;;;;;;1.23;0.68;;;13.10;99.90;;;;;;5111797;28;20189;-72
2021/09/04 01:41:18;;;;;;;1.80;1.25;;;13.10;99.90;;;;;;5111878;28;20155;-74
2021/09/04 01:43:44;;;;;;;1.27;0.82;;;13.10;99.90;;;;;;5093399;28;20199;-73
2021/09/04 01:46:10;;;;;;;0.30;0.30;;;13.10;99.90;;;;;;5093211;28;20187;-73
2021/09/04 01:48:36;;;;;;;0.32;0.32;;;13.10;99.90;;;;;;5111647;28;20233;-72
2021/09/04 01:51:01;;;;;;;0.85;0.55;;;13.10;99.90;;;;;;5093303;28;20186;-72
2021/09/04 01:53:27;;;;;;;0.20;0.20;;;13.20;99.90;;;;;;5092981;28;20247;-72
2021/09/04 01:55:53;;;;;;;1.70;0.77;;;13.10;99.90;;;;;;5093187;28;20171;-73
2021/09/04 01:58:19;;;;;;;1.17;0.95;;;13.10;99.90;;;;;;5111383;28;20208;-72
2021/09/04 02:00:45;;;;;;;1.13;1.13;;;13.10;99.90;;;;;;5093156;28;20230;-73
2021/09/04 02:03:11;;;;;;;0.00;0.00;;;13.10;99.90;;;;;;5093121;28;20172;-72
2021/09/04 02:05:37;;;;;;;0.25;0.25;;;13.10;99.90;;;;;;5111160;28;20217;-72
2021/09/04 02:08:02;;;;;;;1.13;0.70;;;13.00;99.90;;;;;;5111467;28;20156;-72
2021/09/04 02:10:28;;;;;;;1.73;1.67;;;12.90;99.90;;;;;;5093008;28;20167;-73
2021/09/04 02:12:54;;;;;;;2.85;1.48;;;12.90;99.90;;;;;;5091943;28;20203;-73
2021/09/04 02:15:20;;;;;;;1.20;1.13;;;12.80;99.90;;;;;;5111006;28;20160;-72
2021/09/04 02:17:46;;;;;;;0.20;0.20;;;12.80;99.90;;;;;;5111233;28;20156;-72
2021/09/04 02:20:13;;;;;;;0.17;0.17;;;12.80;99.90;;;;;;5110709;28;20159;-72
2021/09/04 02:22:39;;;;;;;1.30;0.65;;;12.70;99.90;;;;;;5110901;28;20215;-72
2021/09/04 02:25:06;;;;;;;0.10;0.10;;;12.80;99.90;;;;;;5092863;28;20207;-72
2021/09/04 02:27:32;;;;;;;0.30;0.30;;;12.80;99.90;;;;;;5092797;28;20167;-73
2021/09/04 02:29:59;;;;;;;0.47;0.25;;;12.80;99.90;;;;;;5092391;28;20179;-73
2021/09/04 02:32:25;;;;;;;0.88;0.88;;;12.80;99.90;;;;;;5110826;28;20247;-73
2021/09/04 02:34:51;;;;;;;0.30;0.30;;;12.70;99.90;;;;;;5110761;28;20159;-74
2021/09/04 02:37:17;;;;;;;0.70;0.70;;;12.60;99.90;;;;;;5092468;28;20179;-74
2021/09/04 02:39:44;;;;;;;0.50;0.40;;;12.70;99.90;;;;;;5110693;28;20250;-74
2021/09/04 02:42:11;;;;;;;0.52;0.52;;;12.60;99.90;;;;;;5110519;28;20192;-73
2021/09/04 02:44:36;;;;;;;0.30;0.30;;;12.50;99.90;;;;;;5092169;28;20198;-73
2021/09/04 02:47:03;;;;;;;0.38;0.38;;;12.60;99.90;;;;;;5110524;28;20211;-73
2021/09/04 02:49:28;;;;;;;0.90;0.90;;;12.60;99.90;;;;;;5092186;28;20265;-74
2021/09/04 02:51:54;;;;;;;1.15;0.73;;;12.50;99.90;;;;;;5092091;28;20195;-74
2021/09/04 02:54:20;;;;;;;1.73;1.63;;;12.50;99.90;;;;;;5110166;28;20235;-74
2021/09/04 02:56:46;;;;;;;1.27;1.17;;;12.50;99.90;;;;;;5091956;28;20175;-72
2021/09/04 02:59:12;;;;;;;2.30;0.73;;;12.40;99.90;;;;;;5110210;28;20156;-74
2021/09/04 03:01:38;;;;;;;1.20;1.15;;;12.30;99.90;;;;;;5091796;28;20179;-74
2021/09/04 03:04:04;;;;;;;0.45;0.45;;;12.30;99.90;;;;;;5110104;28;20151;-74
2021/09/04 03:06:30;;;;;;;1.30;1.20;;;12.30;99.90;;;;;;5109969;28;20254;-73
2021/09/04 03:08:56;;;;;;;0.10;0.10;;;12.40;99.90;;;;;;5110023;28;20154;-75
2021/09/04 03:11:23;;;;;;;0.47;0.38;;;12.40;99.90;;;;;;5109983;28;20179;-74
2021/09/04 03:13:50;;;;;;;3.78;0.38;;;12.40;99.90;;;;;;5091518;28;20206;-74
2021/09/04 03:16:17;;;;;;;0.05;0.05;;;12.40;99.90;;;;;;5110099;28;20185;-74
2021/09/04 03:18:43;;;;;;;16.65;1.20;;;12.40;99.90;;;;;;5091418;28;20175;-74
2021/09/04 03:21:10;;;;;;;0.52;0.52;;;12.30;99.90;;;;;;5109816;28;20151;-73
2021/09/04 03:23:37;;;;;;;0.40;0.40;;;12.40;99.90;;;;;;5109762;28;20264;-74
2021/09/04 03:26:03;;;;;;;0.40;0.40;;;12.40;99.90;;;;;;5091446;28;20199;-73
2021/09/04 03:28:29;;;;;;;0.25;0.22;;;12.50;99.90;;;;;;5109737;28;20158;-72
2021/09/04 03:30:55;;;;;;;0.15;0.15;;;12.40;99.90;;;;;;5109585;28;20211;-72
2021/09/04 03:33:21;;;;;;;0.63;0.63;;;12.30;99.90;;;;;;5091158;28;20191;-74
2021/09/04 03:35:47;;;;;;;0.15;0.15;;;12.30;99.90;;;;;;5109575;28;20159;-72
2021/09/04 03:38:13;;;;;;;1.67;0.80;;;12.30;99.90;;;;;;5091230;28;20229;-73
2021/09/04 03:40:39;;;;;;;1.08;0.47;;;12.30;99.90;;;;;;5109379;28;20155;-72
2021/09/04 03:43:05;;;;;;;1.52;1.17;;;12.20;99.90;;;;;;5108796;28;20202;-72
2021/09/04 03:45:30;;;;;;;0.75;0.22;;;12.20;99.90;;;;;;5091027;28;20668;-72
2021/09/04 03:47:56;;;;;;;0.73;0.73;;;12.10;99.90;;;;;;5109299;28;20160;-72
2021/09/04 03:50:24;;;;;;;0.85;0.85;;;12.10;99.90;;;;;;5109309;28;20163;-72
2021/09/04 03:52:50;;;;;;;0.30;0.22;;;12.10;99.90;;;;;;5104047;28;20756;-75
2021/09/04 03:55:15;;;;;;;1.83;1.73;;;12.00;99.90;;;;;;5070902;28;20172;-73
2021/09/04 03:57:41;;;;;;;2.13;0.65;;;12.00;99.90;;;;;;5070905;28;20237;-73
2021/09/04 04:00:07;;;;;;;0.60;0.60;;;12.00;99.90;;;;;;5088832;28;20194;-73
2021/09/04 04:02:33;;;;;;;0.52;0.50;;;12.00;99.90;;;;;;5088683;28;20653;-73
2021/09/04 04:04:59;;;;;;;0.70;0.63;;;12.10;99.90;;;;;;5088670;28;20237;-73
2021/09/04 04:07:25;;;;;;;0.38;0.38;;;12.10;99.90;;;;;;5088751;28;20166;-73
2021/09/04 04:09:51;;;;;;;0.43;0.43;;;12.10;99.90;;;;;;5088691;28;20156;-73
2021/09/04 04:12:17;;;;;;;0.28;0.28;;;12.00;99.90;;;;;;5088544;28;20679;-74
2021/09/04 04:14:43;;;;;;;0.47;0.47;;;12.00;99.90;;;;;;5088460;28;20168;-73
2021/09/04 04:17:08;;;;;;;0.55;0.55;;;12.00;99.90;;;;;;5070377;28;20176;-74
2021/09/04 04:19:34;;;;;;;0.30;0.30;;;12.00;99.90;;;;;;5070415;28;20182;-73
2021/09/04 04:22:00;;;;;;;0.20;0.20;;;12.00;99.90;;;;;;5088355;28;20210;-72
2021/09/04 04:24:26;;;;;;;0.32;0.32;;;12.00;99.90;;;;;;5070385;28;20223;-73
2021/09/04 04:26:52;;;;;;;1.40;1.30;;;11.80;99.90;;;;;;5088390;28;20236;-73
2021/09/04 04:29:18;;;;;;;0.68;0.60;;;11.90;99.90;;;;;;5088316;28;20270;-73
2021/09/04 04:31:44;;;;;;;0.25;0.25;;;12.00;99.90;;;;;;5088279;28;20625;-73
2021/09/04 04:34:10;;;;;;;0.63;0.28;;;11.90;99.90;;;;;;5088173;28;20152;-73
2021/09/04 04:36:36;;;;;;;0.30;0.30;;;12.00;99.90;;;;;;5070045;28;20247;-73
2021/09/04 04:39:02;;;;;;;3.10;1.23;;;12.10;99.90;;;;;;5088252;28;20207;-73
2021/09/04 04:41:28;;;;;;;0.30;0.30;;;12.10;99.90;;;;;;5088143;28;20176;-74
2021/09/04 04:43:53;;;;;;;1.30;1.20;;;12.20;99.90;;;;;;5069982;28;20184;-73
2021/09/04 04:46:19;;;;;;;0.50;0.40;;;12.20;99.90;;;;;;5070049;28;20195;-73
2021/09/04 04:48:45;;;;;;;1.00;0.98;;;12.20;99.90;;;;;;5088289;28;20159;-74
2021/09/04 04:51:11;;;;;;;0.20;0.20;;;12.30;99.90;;;;;;5069984;28;20168;-74
2021/09/04 04:53:37;;;;;;;0.20;0.20;;;12.40;99.90;;;;;;5082297;28;20230;-74
2021/09/04 04:56:03;;;;;;;1.63;1.50;;;12.60;99.90;;;;;;5094391;28;20169;-74
2021/09/04 04:58:29;;;;;;;0.70;0.70;;;12.70;99.90;;;;;;5112643;28;20238;-74
2021/09/04 05:00:55;;;;;;;0.38;0.38;;;12.80;99.90;;;;;;5112638;28;20454;-75
2021/09/04 05:03:21;;;;;;;0.85;0.85;;;12.90;99.90;;;;;;5112422;28;20201;-74
2021/09/04 05:05:47;;;;;;;2.17;1.00;;;12.90;99.90;;;;;;5112352;28;20191;-74
2021/09/04 05:08:13;;;;;;;0.40;0.35;;;13.00;99.90;;;;;;5112356;28;20163;-74
2021/09/04 05:10:39;;;;;;;0.45;0.45;;;13.30;99.90;;;;;;5112470;28;20211;-74
2021/09/04 05:13:06;;;;;;;0.43;0.43;;;13.50;99.90;;;;;;5112214;28;20190;-75
2021/09/04 05:15:32;;;;;;;1.08;0.73;;;13.20;99.90;;;;;;5093834;28;20175;-73
2021/09/04 05:17:58;;;;;;;1.38;0.88;;;13.40;99.90;;;;;;5093989;28;20181;-73
2021/09/04 05:20:24;;;;;;;0.40;0.40;;;14.10;99.90;;;;;;5112212;28;20667;-73
2021/09/04 05:22:53;;;;;;;0.57;0.57;;;14.90;99.90;;;;;;5112108;28;20195;-73
2021/09/04 05:25:19;;;;;;;1.50;0.63;;;15.60;99.90;;;;;;5093880;28;20235;-73
2021/09/04 05:27:45;;;;;;;1.00;0.82;;;16.40;99.90;;;;;;5112075;28;20208;-75
2021/09/04 05:30:12;;;;;;;0.90;0.90;;;16.50;99.90;;;;;;5111844;28;20171;-73
2021/09/04 05:32:38;;;;;;;0.80;0.75;;;17.00;99.90;;;;;;5111810;28;20467;-74
2021/09/04 05:35:05;;;;;;;0.77;0.73;;;17.90;99.90;;;;;;5093761;28;20236;-75
2021/09/04 05:37:31;;;;;;;2.53;1.02;;;17.70;99.90;;;;;;5111686;28;20195;-75
2021/09/04 05:39:57;;;;;;;0.30;0.30;;;17.60;99.90;;;;;;5111992;28;20231;-75
2021/09/04 05:42:23;;;;;;;1.27;1.23;;;17.80;99.90;;;;;;5112219;28;20187;-74
2021/09/04 05:44:49;;;;;;;1.15;0.65;;;18.40;99.90;;;;;;5112141;28;20194;-75
2021/09/04 05:47:15;;;;;;;1.15;0.55;;;18.50;99.90;;;;;;5112224;28;20180;-74
2021/09/04 05:49:40;;;;;;;6.18;3.03;;;17.80;99.90;;;;;;5112171;28;20164;-73
2021/09/04 05:52:06;;;;;;;0.43;0.43;;;17.10;99.90;;;;;;5093816;28;20288;-73
2021/09/04 05:54:32;;;;;;;5.82;1.15;;;16.60;99.90;;;;;;5093656;28;20690;-73
2021/09/04 05:56:58;;;;;;;0.65;0.65;;;16.10;99.90;;;;;;5111764;28;20147;-73
2021/09/04 05:59:24;;;;;;;0.65;0.65;;;15.80;99.90;;;;;;5111748;28;20160;-73
2021/09/04 06:01:50;;;;;;;0.40;0.40;;;15.60;99.90;;;;;;5093456;28;20301;-72
2021/09/04 06:04:16;;;;;;;1.27;1.23;;;15.80;99.90;;;;;;5111727;28;20152;-72
2021/09/04 06:06:42;;;;;;;1.80;1.70;;;16.10;99.90;;;;;;5092626;28;20203;-73
2021/09/04 06:09:08;;;;;;;1.50;1.35;;;16.90;99.90;;;;;;5111254;28;20182;-73
2021/09/04 06:11:34;;;;;;;0.90;0.85;;;16.90;99.90;;;;;;5092728;28;20257;-73
2021/09/04 06:14:01;;;;;;;1.23;1.17;;;16.50;99.90;;;;;;5092957;28;20178;-75
2021/09/04 06:16:27;;;;;;;0.28;0.28;;;17.10;99.90;;;;;;5111165;28;20169;-75
2021/09/04 06:18:53;;;;;;;1.45;1.35;;;16.80;99.90;;;;;;5092743;28;20207;-73
2021/09/04 06:21:19;;;;;;;1.70;1.60;;;17.30;99.90;;;;;;5110949;28;20174;-74
2021/09/04 06:23:45;;;;;;;4.57;1.17;;;16.90;99.90;;;;;;5110868;28;20194;-74
2021/09/04 06:26:11;;;;;;;0.35;0.35;;;17.20;99.90;;;;;;5110782;28;20187;-74
2021/09/04 06:28:37;;;;;;;0.85;0.85;;;17.10;99.90;;;;;;5110733;28;20225;-74
2021/09/04 06:31:03;;;;;;;1.33;1.25;;;17.10;99.90;;;;;;5092688;28;20167;-73
2021/09/04 06:33:29;;;;;;;1.48;1.38;;;17.10;99.90;;;;;;5092461;28;20222;-75
2021/09/04 06:35:55;;;;;;;0.95;0.95;;;17.50;99.90;;;;;;5110709;28;20178;-74
2021/09/04 06:38:21;;;;;;;0.50;0.50;;;17.90;99.90;;;;;;5110594;28;20171;-74
2021/09/04 06:40:47;;;;;;;1.67;1.38;;;18.10;99.90;;;;;;5110721;28;20215;-74
2021/09/04 06:43:13;;;;;;;1.20;1.10;;;19.30;99.90;;;;;;5092108;28;20206;-74
2021/09/04 06:45:39;;;;;;;1.48;1.17;;;20.30;99.90;;;;;;5110533;28;20191;-74
2021/09/04 06:48:06;;;;;;;2.70;1.40;;;20.30;99.90;;;;;;5092326;28;20604;-74
2021/09/04 06:50:32;;;;;;;0.88;0.45;;;21.60;99.90;;;;;;5110407;28;20161;-74
2021/09/04 06:52:58;;;;;;;1.08;0.80;;;22.30;99.90;;;;;;5092016;28;20256;-75
2021/09/04 06:55:24;;;;;;;2.05;1.05;;;22.50;99.90;;;;;;5091951;28;20186;-75
2021/09/04 06:57:50;;;;;;;1.08;0.80;;;23.10;99.90;;;;;;5091931;28;20179;-74
2021/09/04 07:00:17;;;;;;;2.25;1.10;;;23.10;99.90;;;;;;5110167;28;20174;-74
2021/09/04 07:02:42;;;;;;;0.90;0.90;;;23.30;99.90;;;;;;5109974;28;20195;-73
2021/09/04 07:05:08;;;;;;;1.40;1.30;;;23.40;99.90;;;;;;5091673;28;20231;-76
2021/09/04 07:07:34;;;;;;;1.00;0.52;;;23.80;99.90;;;;;;5110094;28;20159;-73
2021/09/04 07:10:00;;;;;;;0.95;0.82;;;21.90;99.90;;;;;;5091663;28;20162;-73
2021/09/04 07:12:26;;;;;;;8.35;1.70;;;21.30;99.90;;;;;;5091603;28;20251;-72
2021/09/04 07:14:52;;;;;;;2.63;1.15;;;20.50;99.90;;;;;;5109886;28;20189;-72
2021/09/04 07:17:18;;;;;;;2.13;1.88;;;20.20;99.90;;;;;;5108723;28;20167;-72
2021/09/04 07:19:44;;;;;;;1.65;1.55;;;20.10;99.90;;;;;;5091658;28;20167;-73
2021/09/04 07:22:10;;;;;;;0.30;0.30;;;20.20;99.90;;;;;;5086585;28;20229;-73
2021/09/04 07:24:36;;;;;;;4.13;1.48;;;20.70;99.90;;;;;;5096174;28;20179;-73
2021/09/04 07:27:02;;;;;;;0.98;0.90;;;21.10;99.90;;;;;;5108861;28;20162;-73
2021/09/04 07:29:28;;;;;;;4.35;1.20;;;21.10;99.90;;;;;;5109632;28;20216;-73
2021/09/04 07:31:54;;;;;;;1.13;1.05;;;20.90;99.90;;;;;;5109074;28;20190;-73
2021/09/04 07:34:20;;;;;;;0.65;0.40;;;21.70;99.90;;;;;;5091136;28;20159;-74
2021/09/04 07:36:46;;;;;;;1.45;0.57;;;21.90;99.90;;;;;;5108829;28;20158;-73
2021/09/04 07:39:12;;;;;;;7.88;1.08;;;22.00;99.90;;;;;;5109348;28;20214;-73
2021/09/04 07:41:38;;;;;;;1.08;0.65;;;22.90;99.90;;;;;;5090689;28;20230;-73
2021/09/04 07:44:04;;;;;;;0.82;0.60;;;23.10;99.90;;;;;;5109215;28;20155;-75
2021/09/04 07:46:30;;;;;;;1.40;1.30;;;23.00;99.90;;;;;;5090531;28;20190;-75
2021/09/04 07:48:56;;;;;;;0.40;0.40;;;24.00;99.90;;;;;;5109113;28;20147;-75
2021/09/04 07:51:22;;;;;;;1.00;0.88;;;24.10;99.90;;;;;;5090825;28;20185;-74
2021/09/04 07:53:48;;;;;;;0.22;0.22;;;25.00;99.90;;;;;;5108693;28;20226;-75
2021/09/04 07:56:14;;;;;;;0.20;0.20;;;25.50;99.90;;;;;;5090230;28;20163;-72
2021/09/04 07:58:40;;;;;;;0.88;0.88;;;26.10;99.90;;;;;;5108851;28;20159;-73
2021/09/04 08:01:05;;;;;;;1.40;1.30;;;26.30;99.90;;;;;;5090555;28;20170;-72
2021/09/04 08:03:31;;;;;;;2.85;0.70;;;26.60;99.90;;;;;;5090591;28;20257;-72
2021/09/04 08:05:57;;;;;;;1.70;0.65;;;26.80;99.90;;;;;;5102960;28;20289;-73
2021/09/04 08:08:23;;;;;;;0.30;0.30;;;26.40;99.90;;;;;;5093864;28;20217;-73
2021/09/04 08:10:49;;;;;;;1.80;1.45;;;25.50;99.90;;;;;;5113210;28;20190;-73
2021/09/04 08:13:15;;;;;;;0.47;0.47;;;25.80;99.90;;;;;;5110509;28;20188;-73
2021/09/04 08:15:41;;;;;;;0.82;0.73;;;26.10;99.90;;;;;;5092793;28;20234;-73
2021/09/04 08:18:07;;;;;;;1.40;0.68;;;26.00;99.90;;;;;;5108378;28;20165;-74
2021/09/04 08:20:33;;;;;;;0.55;0.55;;;25.30;99.90;;;;;;5108536;28;20224;-73
2021/09/04 08:22:58;;;;;;;0.73;0.73;;;25.10;99.90;;;;;;5108377;28;20190;-74
2021/09/04 08:25:25;;;;;;;1.80;1.40;;;24.70;99.90;;;;;;5108357;28;20246;-74
2021/09/04 08:27:50;;;;;;;0.80;0.80;;;23.80;99.90;;;;;;5107902;28;20232;-73
2021/09/04 08:30:16;;;;;;;2.28;0.60;;;23.20;99.90;;;;;;5107933;28;20159;-74
2021/09/04 08:32:43;;;;;;;0.63;0.63;;;23.50;99.90;;;;;;5090230;28;20186;-73
2021/09/04 08:35:09;;;;;;;1.88;0.80;;;22.90;99.90;;;;;;5108530;28;20170;-72
2021/09/04 08:37:39;;;;;;;0.50;0.35;;;22.60;99.90;;;;;;5108118;28;20167;-73
2021/09/04 08:40:06;;;;;;;1.17;0.40;;;23.50;99.90;;;;;;5090057;28;20177;-73
2021/09/04 08:42:32;;;;;;;0.43;0.43;;;24.80;99.90;;;;;;5108462;28;20218;-72
2021/09/04 08:45:00;;;;;;;0.30;0.30;;;25.90;99.90;;;;;;5090042;28;20198;-72
2021/09/04 08:47:29;;;;;;;1.27;0.60;;;27.00;99.90;;;;;;5089563;28;20270;-72
2021/09/04 08:49:56;;;;;;;0.57;0.57;;;26.90;99.90;;;;;;5102857;28;20168;-77
2021/09/04 08:52:21;;;;;;;0.75;0.52;;;26.40;99.90;;;;;;5087416;28;20191;-72
2021/09/04 08:54:49;;;;;;;0.80;0.50;;;26.60;99.90;;;;;;5087059;28;20203;-76
2021/09/04 08:57:15;;;;;;;1.30;1.20;;;26.20;99.90;;;;;;5093376;28;20204;-75
2021/09/04 08:59:41;;;;;;;1.48;1.38;;;25.30;99.90;;;;;;5108117;28;20167;-72
2021/09/04 09:02:13;;;;;;;1.88;1.10;;;25.40;99.90;;;;;;5108256;28;20271;-72
2021/09/04 09:04:40;;;;;;;3.97;0.70;;;26.00;99.90;;;;;;5108268;28;20222;-73
2021/09/04 09:07:08;;;;;;;1.42;0.88;;;26.80;99.90;;;;;;5089472;28;20167;-71
2021/09/04 09:09:35;;;;;;;0.70;0.70;;;27.10;99.90;;;;;;5107340;28;20191;-72
2021/09/04 09:12:12;;;;;;;2.03;0.93;;;26.60;99.90;;;;;;5107364;28;20158;-71
2021/09/04 09:14:55;;;;;;;0.95;0.93;;;26.00;99.90;;;;;;5107285;28;20189;-71
2021/09/04 09:17:24;;;;;;;0.68;0.68;;;26.10;99.90;;;;;;5088175;28;20181;-71
2021/09/04 09:19:54;;;;;;;0.40;0.40;;;25.10;99.90;;;;;;5084595;28;20283;-71
2021/09/04 09:22:20;;;;;;;1.25;1.20;;;25.30;99.90;;;;;;5087476;28;20659;-72
2021/09/04 09:24:46;;;;;;;0.88;0.35;;;24.50;99.90;;;;;;5086531;28;20211;-71
2021/09/04 09:27:15;;;;;;;2.13;0.57;;;24.60;99.90;;;;;;5101148;28;20182;-72
2021/09/04 09:29:49;;;;;;;0.70;0.68;;;25.50;99.90;;;;;;5107242;28;20303;-72
2021/09/04 09:32:15;;;;;;;2.75;0.63;;;25.90;99.90;;;;;;5089750;28;20189;-70
2021/09/04 09:34:43;;;;;;;0.43;0.43;;;25.80;99.90;;;;;;5089568;28;20536;-71
2021/09/04 09:37:11;;;;;;;0.43;0.40;;;26.30;99.90;;;;;;5107916;28;20155;-72
2021/09/04 09:39:40;;;;;;;1.15;1.13;;;26.40;99.90;;;;;;5107717;28;20187;-71
2021/09/04 09:42:08;;;;;;;1.77;0.32;;;26.10;99.90;;;;;;5111275;28;20158;-70
2021/09/04 09:44:36;;;;;;;3.03;0.38;;;27.00;99.90;;;;;;5111600;28;20171;-71
2021/09/04 09:47:07;;;;;;;0.50;0.50;;;27.50;99.90;;;;;;5111508;28;20151;-71
2021/09/04 09:49:34;;;;;;;0.65;0.57;;;27.00;99.90;;;;;;5111621;28;20193;-72
2021/09/04 09:52:05;;;;;;;0.30;0.30;;;27.20;99.90;;;;;;5111654;28;20170;-72
2021/09/04 09:54:33;;;;;;;0.88;0.65;;;26.20;99.90;;;;;;5092899;28;20244;-71
2021/09/04 09:57:01;;;;;;;0.52;0.52;;;25.70;99.90;;;;;;5111455;28;20185;-71
2021/09/04 09:59:31;;;;;;;1.10;0.73;;;26.00;99.90;;;;;;5111509;28;20213;-71
2021/09/04 10:02:13;;;;;;;0.73;0.73;;;26.30;99.90;;;;;;5111112;28;20159;-72
2021/09/04 10:04:40;;;;;;;3.20;0.85;;;26.10;99.90;;;;;;5091887;28;20194;-70
2021/09/04 10:07:08;;;;;;;1.02;1.02;;;26.10;99.90;;;;;;5092323;28;20556;-71
2021/09/04 10:09:37;;;;;;;0.55;0.55;;;24.80;99.90;;;;;;5110468;28;20163;-72
2021/09/04 10:12:04;;;;;;;0.50;0.50;;;24.70;99.90;;;;;;5110363;28;20635;-72
2021/09/04 10:14:31;;;;;;;0.88;0.73;;;25.70;99.90;;;;;;5110154;28;20194;-73
2021/09/04 10:17:00;;;;;;;0.47;0.45;;;26.90;99.90;;;;;;5110662;28;20151;-72
2021/09/04 10:19:30;;;;;;;2.17;0.90;;;25.60;99.90;;;;;;5111099;28;20155;-71
2021/09/04 10:22:15;;;;;;;0.70;0.70;;;25.00;99.90;;;;;;5092793;28;20294;-71
2021/09/04 10:24:51;;;;;;;1.00;0.60;;;26.00;99.90;;;;;;5110713;28;20191;-71
2021/09/04 10:27:35;;;;;;;1.30;1.20;;;27.10;99.90;;;;;;5110833;28;20174;-71
2021/09/04 10:30:29;;;;;;;0.52;0.52;;;27.70;99.90;;;;;;5110898;28;20151;-70
2021/09/04 10:32:58;;;;;;;0.63;0.50;;;27.00;99.90;;;;;;5092331;28;20218;-71
2021/09/04 10:35:57;;;;;;;0.55;0.20;;;27.20;99.90;;;;;;5092528;28;20250;-73
2021/09/04 10:38:26;;;;;;;0.65;0.43;;;27.70;99.90;;;;;;5028296;28;20213;-72
2021/09/04 10:41:12;;;;;;;0.68;0.55;;;28.40;99.90;;;;;;5011673;28;20186;-71
2021/09/04 10:43:44;;;;;;;0.98;0.73;;;29.70;99.90;;;;;;5027794;28;20217;-71
2021/09/04 10:46:15;;;;;;;1.15;0.95;;;29.60;98.30;;;;;;5027930;28;20189;-71
2021/09/04 10:48:42;;;;;;;0.47;0.47;;;29.50;97.20;;;;;;5028203;28;20236;-72
2021/09/04 10:51:10;;;;;;;1.88;0.45;;;29.20;97.30;;;;;;5027881;28;20173;-71
2021/09/04 10:53:49;;;;;;;0.38;0.38;;;27.60;99.00;;;;;;5017020;28;20226;-71
2021/09/04 10:56:20;;;;;;;0.50;0.50;;;27.30;99.50;;;;;;5008520;28;20546;-72
2021/09/04 10:58:46;;;;;;;1.60;0.63;;;28.50;99.90;;;;;;4991937;28;20257;-71
2021/09/04 11:01:48;;;;;;;2.70;1.27;;;28.00;98.10;;;;;;5008227;28;20190;-71
2021/09/04 11:04:14;;;;;;;0.40;0.40;;;27.00;99.50;;;;;;5008194;28;20774;-72
2021/09/04 11:06:47;;;;;;;0.40;0.40;;;28.70;99.90;;;;;;5007922;28;20297;-71
2021/09/04 11:09:15;;;;;;;0.60;0.60;;;29.20;96.50;;;;;;5008196;28;20627;-70
2021/09/04 11:11:41;;;;;;;0.43;0.43;;;28.10;98.60;;;;;;5008106;28;20254;-71
2021/09/04 11:14:23;;;;;;;0.55;0.30;;;28.70;97.40;;;;;;5054421;28;20199;-70
2021/09/04 11:16:52;;;;;;;0.40;0.40;;;28.60;99.40;;;;;;5071440;28;20197;-70
2021/09/04 11:19:29;;;;;;;0.22;0.22;;;29.20;97.80;;;;;;5089487;28;20671;-70
2021/09/04 11:21:58;;;;;;;1.30;1.20;;;28.90;97.10;;;;;;5089337;28;20156;-71
2021/09/04 11:24:28;;;;;;;0.63;0.63;;;29.70;95.90;;;;;;5071147;28;20227;-70
2021/09/04 11:27:09;;;;;;;0.20;0.20;;;28.20;97.50;;;;;;5089363;28;20175;-69
2021/09/04 11:29:51;;;;;;;1.23;0.68;;;28.40;96.70;;;;;;5089403;28;20162;-70
2021/09/04 11:32:19;;;;;;;0.50;0.50;;;28.70;98.30;;;;;;5071170;28;20174;-71
2021/09/04 11:34:50;;;;;;;0.17;0.10;;;30.00;98.00;;;;;;5089307;28;20245;-71
2021/09/04 11:37:40;;;;;;;3.05;1.52;;;30.10;96.40;;;;;;5089126;28;20194;-71
2021/09/04 11:40:10;;;;;;;0.93;0.82;;;30.60;97.10;;;;;;5071045;28;20183;-71
2021/09/04 11:42:47;;;;;;;2.15;0.63;;;31.10;94.40;;;;;;5071065;28;20179;-71
2021/09/04 11:45:21;;;;;;;0.60;0.60;;;30.10;96.10;;;;;;5088901;28;20186;-70
2021/09/04 11:47:50;;;;;;;3.20;1.35;;;29.60;96.10;;;;;;5070803;28;20167;-70
2021/09/04 11:50:31;;;;;;;0.40;0.40;;;28.80;97.30;;;;;;5070846;28;20168;-71
2021/09/04 11:52:59;;;;;;;0.98;0.63;;;29.60;96.20;;;;;;5076476;28;20242;-70
2021/09/04 11:55:27;;;;;;;4.28;1.00;;;30.90;95.00;;;;;;5109149;28;20171;-71
2021/09/04 11:57:56;;;;;;;0.40;0.30;;;29.60;95.10;;;;;;5102488;28;20202;-71
2021/09/04 12:00:30;;;;;;;3.60;0.85;;;30.30;94.90;;;;;;5088473;28;20211;-71
2021/09/04 12:02:59;;;;;;;0.47;0.47;;;29.30;95.40;;;;;;5088197;28;20193;-70
2021/09/04 12:05:31;;;;;;;0.80;0.80;;;29.30;96.40;;;;;;5070612;28;20210;-71
2021/09/04 12:08:09;;;;;;;2.55;0.90;;;29.90;95.30;;;;;;5070130;28;20195;-70
2021/09/04 12:10:37;;;;;;;0.60;0.50;;;29.70;95.60;;;;;;5070442;28;20316;-70
2021/09/04 12:13:07;;;;;;;0.52;0.52;;;30.10;96.80;;;;;;5088547;28;20159;-71
2021/09/04 12:15:35;;;;;;;0.30;0.30;;;28.40;97.30;;;;;;5107188;28;20175;-70
2021/09/04 12:18:06;;;;;;;1.48;1.05;;;28.30;97.20;;;;;;5090692;28;20195;-70
2021/09/04 12:20:36;;;;;;;0.28;0.28;;;27.30;97.50;;;;;;5108597;28;20205;-70
2021/09/04 12:23:29;;;;;;;0.68;0.68;;;25.30;99.90;;;;;;5090485;28;20174;-70
2021/09/04 12:26:07;;;;;;;2.50;1.50;;;24.40;99.90;;;;;;5085786;28;20210;-71
2021/09/04 12:28:33;;;;;;;1.95;1.00;;;23.90;99.90;;;;;;5108443;28;20532;-70
2021/09/04 12:31:06;;;;;;;1.58;0.85;;;23.90;99.90;;;;;;5090253;28;20181;-70
2021/09/04 12:33:54;;;;;;;0.93;0.82;;;23.50;99.90;;;;;;5108576;28;20177;-70
2021/09/04 12:36:25;;;;;;;2.47;0.38;;;23.60;99.90;;;;;;5108363;28;20219;-70
2021/09/04 12:38:53;;;;;;;0.32;0.30;;;23.90;99.90;;;;;;5108420;28;20186;-70
2021/09/04 12:41:19;;;;;;;0.30;0.30;;;23.80;99.90;;;;;;5108527;28;20163;-70
2021/09/04 12:44:03;;;;;;;0.32;0.32;;;23.80;99.90;;;;;;5090326;28;20178;-70
2021/09/04 12:46:37;;;;;;;0.70;0.40;;;24.00;99.90;;;;;;5108343;28;20198;-70
2021/09/04 12:49:21;;;;;;;0.30;0.30;;;24.20;99.90;;;;;;5089964;28;20231;-70
2021/09/04 12:52:16;;;;;;;0.60;0.60;;;24.00;99.90;;;;;;5108199;28;20167;-70